ADDS METAR Data INFO
IDs: Format: Raw Decoded Include TAF

Data at: 1807 UTC 18 Feb 2018

KMMI 181755Z AUTO 00000KT 10SM CLR 11/03 A3029 RMK
KMMI 181735Z AUTO 00000KT 10SM CLR 11/03 A3030 RMK
KMMI 181715Z AUTO 09003KT 10SM CLR 11/03 A3032 RMK
KMMI 181655Z AUTO 07006KT 10SM CLR 11/04 A3032 RMK
KMMI 181635Z AUTO VRB05KT 10SM CLR 10/04 A3032 RMK
KMMI 181615Z AUTO 04006KT 10SM CLR 09/03 A3033 RMK
KMMI 181555Z AUTO 03007KT 10SM CLR 08/03 A3033 RMK
KMMI 181535Z AUTO 03007KT 10SM CLR 08/03 A3033 RMK
KMMI 181515Z AUTO 04009KT 10SM CLR 07/03 A3033 RMK
KMMI 181455Z AUTO 05009KT 10SM CLR 07/03 A3033 RMK
KMMI 181435Z AUTO 04009KT 10SM CLR 07/03 A3034 RMK
KMMI 181415Z AUTO 05008KT 10SM CLR 06/03 A3034 RMK
KMMI 181355Z AUTO 04008KT 10SM CLR 06/02 A3033 RMK
KMMI 181335Z AUTO 04004KT 10SM CLR 05/03 A3033 RMK
KMMI 181315Z AUTO 04004KT 10SM CLR 04/02 A3032 RMK
KMMI 181255Z AUTO 00000KT 10SM CLR 02/02 A3030 RMK
KMMI 181235Z AUTO 00000KT 10SM CLR 02/01 A3030 RMK
KMMI 181215Z AUTO 00000KT 10SM CLR 02/02 A3029 RMK
KMMI 181155Z AUTO 00000KT 10SM SCT022 03/02 A3028 RMK
KMMI 181135Z AUTO 00000KT 10SM SCT024 03/02 A3027 RMK
KMMI 181115Z AUTO 00000KT 10SM CLR 03/02 A3027 RMK
KMMI 181055Z AUTO 05003KT 10SM CLR 03/03 A3028 RMK
KMMI 181035Z AUTO 00000KT 10SM CLR 03/03 A3027 RMK
KMMI 181015Z AUTO 00000KT 10SM CLR 04/03 A3026 RMK
KMMI 180955Z AUTO 03003KT 10SM FEW032 04/03 A3026 RMK
KMMI 180935Z AUTO 00000KT 10SM FEW032 05/03 A3026 RMK
KMMI 180915Z AUTO 03003KT 10SM CLR 06/04 A3026 RMK
KMMI 180855Z AUTO 00000KT 10SM CLR 06/04 A3026 RMK
KMMI 180835Z AUTO 00000KT 10SM FEW029 06/05 A3026 RMK
KMMI 180815Z AUTO 00000KT 10SM FEW026 BKN031 07/06 A3026 RMK
KMMI 180755Z AUTO 35003KT 10SM OVC031 07/06 A3026 RMK
KMMI 180735Z AUTO 00000KT 10SM OVC031 08/06 A3025 RMK
KMMI 180715Z AUTO 00000KT 10SM OVC031 08/07 A3024 RMK
KMMI 180655Z AUTO 01003KT 10SM FEW021 OVC031 08/07 A3024 RMK
KMMI 180635Z AUTO 00000KT 10SM SCT014 OVC021 08/08 A3024 RMK
KMMI 180615Z AUTO 00000KT 10SM OVC014 08/08 A3023 RMK
KMMI 180555Z AUTO 00000KT 10SM OVC016 08/08 A3022 RMK
KMMI 180535Z AUTO 00000KT 10SM OVC020 08/08 A3021 RMK
KMMI 180515Z AUTO 00000KT 10SM OVC020 08/08 A3022 RMK
KMMI 180455Z AUTO 00000KT 10SM BKN015 OVC020 07/07 A3022 RMK
KMMI 180435Z AUTO 00000KT 10SM BKN013 08/07 A3021 RMK
KMMI 180415Z AUTO 00000KT 10SM SCT015 08/07 A3020 RMK
KMMI 180355Z AUTO 28003KT 10SM BKN017 08/08 A3021 RMK
KMMI 180335Z AUTO 00000KT 10SM OVC017 08/08 A3021 RMK
KMMI 180315Z AUTO 00000KT 10SM OVC019 08/08 A3021 RMK
KMMI 180255Z AUTO 00000KT 10SM OVC021 08/08 A3021 RMK
KMMI 180235Z AUTO 00000KT 10SM OVC023 08/08 A3020 RMK
KMMI 180215Z AUTO 00000KT 10SM OVC023 08/08 A3018 RMK
KMMI 180155Z AUTO 00000KT 10SM BKN023 OVC035 08/08 A3016 RMK
KMMI 180135Z AUTO 00000KT 10SM BKN035 OVC050 08/08 A3016 RMK
KMMI 180115Z AUTO 00000KT 6SM SCT025 OVC050 08/08 A3014 RMK
KMMI 180055Z AUTO 00000KT 10SM FEW018 OVC025 08/08 A3013 RMK
KMMI 180035Z AUTO 08003KT 5SM SCT004 BKN013 OVC025 08/08 A3012 RMK
KMMI 180015Z AUTO 00000KT 5SM SCT005 OVC015 08/08 A3013 RMK
KMMI 172355Z AUTO 00000KT 8SM SCT008 BKN012 OVC017 08/08 A3011 RMK
KMMI 172335Z AUTO 00000KT 7SM OVC008 09/09 A3011 RMK
KMMI 172315Z AUTO 35003KT 6SM OVC005 09/09 A3010 RMK
KMMI 172255Z AUTO 00000KT 4SM OVC005 09/09 A3008 RMK
KMMI 172235Z AUTO 00000KT 2 1/2SM OVC004 09/09 A3007 RMK
KMMI 172215Z AUTO 32003KT 1 3/4SM BKN005 OVC010 09/09 A3006 RMK
KMMI 172155Z AUTO 00000KT 10SM OVC023 10/09 A3005 RMK
KMMI 172135Z AUTO 32004KT 10SM FEW018 OVC025 10/09 A3005 RMK
KMMI 172115Z AUTO 31003KT 10SM OVC016 10/09 A3005 RMK
KMMI 172055Z AUTO VRB04KT 10SM OVC012 11/09 A3005 RMK
KMMI 172035Z AUTO 30009KT 7SM FEW008 OVC016 13/12 A3006 RMK
KMMI 172015Z AUTO VRB05KT 10SM OVC018 14/12 A3004 RMK
KMMI 171955Z AUTO 23012KT 10SM OVC016 14/12 A3006 RMK
KMMI 171935Z AUTO 23014KT 10SM OVC012 14/13 A3004 RMK
KMMI 171915Z AUTO 22014KT 10SM OVC012 13/12 A3003 RMK
KMMI 171855Z AUTO 22004KT 10SM OVC012 10/09 A3003 RMK
KMMI 171835Z AUTO 00000KT 10SM OVC012 09/08 A3003 RMK
KMMI 171815Z AUTO 00000KT 8SM OVC012 08/07 A3004 RMK
KMMI 171755Z AUTO 23005KT 4SM FEW003 BKN014 OVC019 08/07 A3005 RMK
KMMI 171735Z AUTO 23006KT 8SM FEW012 OVC019 08/06 A3005 RMK
KMMI 171715Z AUTO 23005KT 10SM SCT012 OVC021 08/06 A3005 RMK
KMMI 171655Z AUTO 22005KT 10SM FEW012 OVC023 08/06 A3004 RMK
KMMI 171635Z AUTO 23004KT 10SM FEW012 OVC025 08/06 A3005 RMK
KMMI 171615Z AUTO 00000KT 10SM OVC025 08/06 A3006 RMK
KMMI 171555Z AUTO 00000KT 10SM OVC027 08/06 A3007 RMK
KMMI 171535Z AUTO 18003KT 10SM OVC029 07/05 A3008 RMK
KMMI 171515Z AUTO 00000KT 10SM OVC029 07/05 A3009 RMK
KMMI 171455Z AUTO 18003KT 10SM BKN029 OVC070 07/05 A3010 RMK
KMMI 171435Z AUTO 00000KT 10SM OVC029 07/04 A3010 RMK
KMMI 171415Z AUTO 00000KT 10SM BKN033 BKN039 OVC050 07/04 A3012 RMK
KMMI 171355Z AUTO 00000KT 10SM FEW043 BKN050 OVC060 06/04 A3013 RMK
KMMI 171335Z AUTO 00000KT 10SM FEW043 BKN060 OVC090 06/04 A3013 RMK
KMMI 171315Z AUTO 00000KT 10SM SCT060 OVC090 06/04 A3013 RMK
KMMI 171255Z AUTO 00000KT 10SM SCT060 06/04 A3013 RMK
KMMI 171235Z AUTO 00000KT 10SM CLR 06/04 A3014 RMK
KMMI 171215Z AUTO 00000KT 10SM BKN120 06/04 A3014 RMK
KMMI 171155Z AUTO 00000KT 10SM BKN015 OVC110 06/04 A3015 RMK
KMMI 171135Z AUTO 05003KT 10SM OVC015 06/04 A3015 RMK
KMMI 171115Z AUTO 05003KT 10SM OVC017 06/04 A3016 RMK
KMMI 171055Z AUTO 05003KT 10SM OVC015 06/04 A3016 RMK
KMMI 171035Z AUTO 04004KT 10SM OVC015 06/04 A3017 RMK
KMMI 171015Z AUTO 04004KT 10SM OVC015 06/04 A3016 RMK
KMMI 170955Z AUTO 04004KT 10SM OVC015 06/04 A3016 RMK
KMMI 170935Z AUTO 04003KT 10SM OVC015 06/04 A3016 RMK
KMMI 170915Z AUTO 00000KT 10SM OVC017 06/04 A3017 RMK
KMMI 170855Z AUTO 03003KT 10SM OVC017 06/04 A3018 RMK
KMMI 170835Z AUTO 04003KT 10SM OVC017 06/04 A3017 RMK
KMMI 170815Z AUTO 00000KT 10SM OVC017 06/04 A3018 RMK
KMMI 170755Z AUTO 03004KT 10SM OVC017 06/03 A3018 RMK
KMMI 170735Z AUTO 03004KT 10SM OVC017 06/04 A3020 RMK
KMMI 170715Z AUTO 05003KT 10SM OVC019 06/03 A3020 RMK
KMMI 170655Z AUTO 03004KT 10SM OVC019 06/04 A3021 RMK
KMMI 170635Z AUTO 03003KT 10SM OVC019 06/04 A3021 RMK
KMMI 170615Z AUTO 00000KT 10SM OVC021 06/04 A3021 RMK